Wolf Point, Montana
Current Conditions -  °F | °C
As of 8:53 AM on Thursday 30 Oct 2014 (Local Time) from KOLF Reporting Station
Overcast Overcast  
Wind Chill: 32°   Ceiling: 1300
Heat Index: 37°   Visibility: 9mi
Dew Point: 31°   Wind: 6mph
Humidity: 79%   Direction: 20°NNE
Pressure: 30.37"   Gusts: NA
Location:  48.09°N, 105.64°W
Report Text: KOLF 301453Z AUTO 02005KT 9SM OVC013 03/M01 A3037 RMK AO2 SLP303 T00281006 53024
Loading
Personal Weather Stations






























Interactive Weather Map
Tropical Storm Tracking
New forecast layout! Learn more

10-Day Weather Forecast

Advertisements
Track Severe Weather on mobile